NCAR-RAP Real-Time Weather Data

Output produced by METARs form (12 May 2021  12:07 UTC)
found at http://weather.rap.ucar.edu/surface/
 
KMOB 121156Z 11004KT 4SM BR OVC003 19/19 A3005 RMK AO2 RAE13 SLP172 P0001 60114 70190 T01890189 10200 20189 53006
KMOB 121139Z 00000KT 4SM BR BKN003 BKN050 OVC100 19/19 A3003 RMK AO2 RAE13 P0001 T01890189
KMOB 121128Z 14009KT 5SM BR FEW003 BKN050 OVC100 19/19 A3001 RMK AO2 RAE13 CB DSNT E-S P0001 T01890189 $
KMOB 121056Z 06004KT 5SM RA BR SCT050 BKN080 OVC110 19/19 A3002 RMK AO2 LTG DSNT E TSE0959 SLP164 CB DSNT E-S P0011 T01890189 $
KMOB 121029Z VRB03KT 5SM -RA BR FEW004 SCT050 BKN075 19/19 A3003 RMK AO2 LTG DSNT NE-S TSE0959 CB DSNT NE-S P0009 T01890189 $
KMOB 121009Z AUTO 00000KT 4SM VCTS +RA BR FEW004 BKN070 OVC090 19/19 A3003 RMK AO2 LTG DSNT ALQDS TSE0959 P0005 T01890189 $
KMOB 121005Z AUTO 00000KT 5SM +RA BR FEW060 BKN070 OVC085 19/19 A3003 RMK AO2 LTG DSNT ALQDS TSE0959 P0004 T01890189 $
KMOB 120956Z AUTO 35004KT 4SM +TSRA BR BKN065 OVC080 19/19 A3004 RMK AO2 LTG DSNT ALQDS TSE29B44 SLP170 P0101 T01890189 $
KMOB 120931Z AUTO 33010KT 4SM VCTS RA BR BKN031 OVC070 19/19 A3002 RMK AO2 LTG DSNT ALQDS TSE29 PRESFR P0094 T01890189
KMOB 120927Z AUTO 34009KT 3SM +TSRA BR FEW007 BKN027 OVC065 19/19 A3003 RMK AO2 LTG DSNT ALQDS P0093 T01890189
KMOB 120921Z AUTO 32007KT 1SM +TSRA BR FEW007 OVC018 19/19 A3004 RMK AO2 LTG DSNT ALQDS P0088 T01890189
KMOB 120915Z AUTO VRB06G18KT 1/2SM +TSRA FG FEW004 OVC010 19/19 A3005 RMK AO2 LTG DSNT ALQDS P0067 T01890189
KMOB 120904Z AUTO 31012G20KT 1 3/4SM +TSRA BR FEW004 BKN010 OVC019 19/19 A3004 RMK AO2 LTG DSNT ALQDS PRESRR P0010 T01940194
KMOB 120856Z AUTO 32009G16KT 9SM TSRA SCT005 OVC010 20/19 A3003 RMK AO2 LTG DSNT SW-N RAB40 TSB36 PRESRR SLP166 P0001 60001 T02000194 53006
KMOB 120852Z AUTO 10SM -TSRA SCT005 OVC010 20/19 A3001 RMK AO2 LTG DSNT SW-N RAB40 TSB36 P0001
KMOB 120836Z AUTO 10SM TS OVC012 20/19 A3000 RMK AO2 LTG DSNT W-N TSB36 T02000194
KMOB 120756Z AUTO 10SM OVC013 19/19 A3000 RMK AO2 LTG DSNT W-N SLP156 T01940194
KMOB 120744Z AUTO 10SM FEW005 OVC013 19/19 A3000 RMK AO2 LTG DSNT W-N T01940194
KMOB 120735Z AUTO 10SM BKN013 OVC018 19/19 A3000 RMK AO2 LTG DSNT W-N T01940194
KMOB 120656Z AUTO 10SM FEW004 BKN024 19/19 A3001 RMK AO2 LTG DSNT NW SLP160 T01940194
KMOB 120630Z AUTO 06004KT 10SM FEW004 BKN022 BKN080 19/19 A3003 RMK AO2 T01940194
KMOB 120619Z AUTO 06004KT 10SM FEW004 SCT022 BKN033 19/19 A3004 RMK AO2 T01940194
KMOB 120556Z AUTO 06004KT 10SM FEW004 BKN022 OVC040 20/19 A3004 RMK AO2 SLP170 T02000194 10211 20194 402330189 58002
KMOB 120544Z AUTO 06003KT 10SM FEW004 BKN023 20/20 A3004 RMK AO2 T02000200
KMOB 120533Z AUTO 07003KT 10SM FEW004 20/20 A3004 RMK AO2 T02000200
KMOB 120456Z AUTO 10005KT 10SM FEW090 SCT110 20/20 A3004 RMK AO2 SLP169 T02000200
KMOB 120356Z 05003KT 10SM CLR 19/19 A3005 RMK AO2 SLP174 T01940194
KMOB 120256Z 10003KT 10SM SCT200 19/19 A3004 RMK AO2 SLP171 T01940189 51012
KMOB 120156Z 00000KT 10SM FEW120 SCT200 19/19 A3004 RMK AO2 SLP169 T01940194
KMOB 120056Z 00000KT 10SM FEW030 SCT120 BKN200 20/19 A3002 RMK AO2 SLP162 T02000194
KMOB 112356Z 12005KT 10SM SCT007 BKN120 21/20 A3001 RMK AO2 SLP159 60031 T02110200 10217 20194 55006
KMOB 112349Z 12006KT 10SM SCT006 BKN120 21/20 A3000 RMK AO2 T02110200
KMOB 112256Z 15003KT 10SM FEW030 SCT120 BKN200 22/20 A2999 RMK AO2 SLP153 T02170200